Kempten-Durach Airport EDMK

Flugplatz Daten

Name: Kempten-Durach Airport

Ident: EDMK

Lat: 47,69194412

Long: 10,33805561

Platzhöhe: 2339 ft

IataCode:

City: Kempten

Metar

2013/02/25 06:30
UBBG 250630Z 09003KT 0350 R30/0350 FG VV002 05/05 Q1032 R30R/190065 BEDMK 1500 BR VV003

Taf

Gewünschte Webcam nicht vorhanden? Dann fügen Sie eine hinzu. Sie wird dann so schnell wie möglich freigeschaltet
Url: Title: